sensor_id;sensor_type;location;lat;lon;timestamp;temperature;humidity
49148;DHT22;41980;45.550;12.070;2023-05-29T00:02:12;20.00;55.40
49148;DHT22;41980;45.550;12.070;2023-05-29T00:08:15;20.00;55.40
49148;DHT22;41980;45.550;12.070;2023-05-29T00:14:18;19.90;56.50
49148;DHT22;41980;45.550;12.070;2023-05-29T00:20:21;19.90;56.10
49148;DHT22;41980;45.550;12.070;2023-05-29T00:26:23;19.80;57.40
49148;DHT22;41980;45.550;12.070;2023-05-29T00:32:29;19.70;56.70
49148;DHT22;41980;45.550;12.070;2023-05-29T00:38:31;19.60;56.70
49148;DHT22;41980;45.550;12.070;2023-05-29T00:44:33;19.50;57.40
49148;DHT22;41980;45.550;12.070;2023-05-29T00:50:35;19.50;58.70
49148;DHT22;41980;45.550;12.070;2023-05-29T00:56:39;19.40;57.80
49148;DHT22;41980;45.550;12.070;2023-05-29T01:02:45;19.40;58.70
49148;DHT22;41980;45.550;12.070;2023-05-29T01:08:48;19.40;58.70
49148;DHT22;41980;45.550;12.070;2023-05-29T01:21:03;19.30;58.10
49148;DHT22;41980;45.550;12.070;2023-05-29T01:27:10;19.30;58.50
49148;DHT22;41980;45.550;12.070;2023-05-29T01:33:12;19.30;59.10
49148;DHT22;41980;45.550;12.070;2023-05-29T01:39:14;19.30;59.80
49148;DHT22;41980;45.550;12.070;2023-05-29T01:45:17;19.20;59.00
49148;DHT22;41980;45.550;12.070;2023-05-29T01:51:22;19.20;59.70
49148;DHT22;41980;45.550;12.070;2023-05-29T01:57:25;19.20;58.80
49148;DHT22;41980;45.550;12.070;2023-05-29T02:03:27;19.20;58.70
49148;DHT22;41980;45.550;12.070;2023-05-29T02:09:30;19.20;58.70
49148;DHT22;41980;45.550;12.070;2023-05-29T02:15:33;19.30;58.70
49148;DHT22;41980;45.550;12.070;2023-05-29T02:21:38;19.30;58.40
49148;DHT22;41980;45.550;12.070;2023-05-29T02:27:42;19.30;58.80
49148;DHT22;41980;45.550;12.070;2023-05-29T02:33:45;19.30;59.40
49148;DHT22;41980;45.550;12.070;2023-05-29T02:39:47;19.30;58.60
49148;DHT22;41980;45.550;12.070;2023-05-29T02:45:49;19.20;58.40
49148;DHT22;41980;45.550;12.070;2023-05-29T02:51:52;19.20;58.60
49148;DHT22;41980;45.550;12.070;2023-05-29T03:04:16;19.20;58.20
49148;DHT22;41980;45.550;12.070;2023-05-29T03:10:19;19.20;58.50
49148;DHT22;41980;45.550;12.070;2023-05-29T03:16:22;19.10;58.60
49148;DHT22;41980;45.550;12.070;2023-05-29T03:22:24;19.10;58.70
49148;DHT22;41980;45.550;12.070;2023-05-29T03:28:27;19.20;59.30
49148;DHT22;41980;45.550;12.070;2023-05-29T03:34:29;19.20;59.50
49148;DHT22;41980;45.550;12.070;2023-05-29T03:40:33;19.20;59.70
49148;DHT22;41980;45.550;12.070;2023-05-29T03:46:35;19.30;59.20
49148;DHT22;41980;45.550;12.070;2023-05-29T03:52:37;19.30;58.80
49148;DHT22;41980;45.550;12.070;2023-05-29T03:58:40;19.50;58.90
49148;DHT22;41980;45.550;12.070;2023-05-29T04:04:44;19.50;58.40
49148;DHT22;41980;45.550;12.070;2023-05-29T04:10:46;19.70;58.50
49148;DHT22;41980;45.550;12.070;2023-05-29T04:16:48;19.80;58.40
49148;DHT22;41980;45.550;12.070;2023-05-29T04:22:51;20.00;58.20
49148;DHT22;41980;45.550;12.070;2023-05-29T04:28:55;20.20;57.60
49148;DHT22;41980;45.550;12.070;2023-05-29T04:35:01;20.40;57.50
49148;DHT22;41980;45.550;12.070;2023-05-29T04:41:06;20.60;57.00
49148;DHT22;41980;45.550;12.070;2023-05-29T04:47:10;20.90;56.70
49148;DHT22;41980;45.550;12.070;2023-05-29T04:53:15;21.00;57.10
49148;DHT22;41980;45.550;12.070;2023-05-29T04:59:17;21.20;56.80
49148;DHT22;41980;45.550;12.070;2023-05-29T05:05:19;21.90;56.80
49148;DHT22;41980;45.550;12.070;2023-05-29T05:11:23;22.70;55.80
49148;DHT22;41980;45.550;12.070;2023-05-29T05:17:25;23.00;55.00
49148;DHT22;41980;45.550;12.070;2023-05-29T05:23:27;23.50;54.90
49148;DHT22;41980;45.550;12.070;2023-05-29T05:29:29;25.20;53.90
49148;DHT22;41980;45.550;12.070;2023-05-29T05:35:33;26.90;52.50
49148;DHT22;41980;45.550;12.070;2023-05-29T05:41:35;27.90;50.20
49148;DHT22;41980;45.550;12.070;2023-05-29T05:47:38;28.50;50.10
49148;DHT22;41980;45.550;12.070;2023-05-29T05:53:40;29.00;48.90
49148;DHT22;41980;45.550;12.070;2023-05-29T05:59:42;29.00;47.10
49148;DHT22;41980;45.550;12.070;2023-05-29T06:05:46;29.40;47.80
49148;DHT22;41980;45.550;12.070;2023-05-29T06:11:49;30.00;46.80
49148;DHT22;41980;45.550;12.070;2023-05-29T06:17:52;30.40;45.30
49148;DHT22;41980;45.550;12.070;2023-05-29T06:23:54;30.60;45.70
49148;DHT22;41980;45.550;12.070;2023-05-29T06:29:56;30.40;45.20
49148;DHT22;41980;45.550;12.070;2023-05-29T06:35:58;30.60;44.50
49148;DHT22;41980;45.550;12.070;2023-05-29T06:42:01;31.00;43.60
49148;DHT22;41980;45.550;12.070;2023-05-29T06:48:04;31.30;42.50
49148;DHT22;41980;45.550;12.070;2023-05-29T06:54:06;32.20;42.20
49148;DHT22;41980;45.550;12.070;2023-05-29T07:00:09;32.40;40.50
49148;DHT22;41980;45.550;12.070;2023-05-29T07:06:17;32.70;40.90
49148;DHT22;41980;45.550;12.070;2023-05-29T07:12:19;32.90;38.80
49148;DHT22;41980;45.550;12.070;2023-05-29T07:18:22;32.50;39.40
49148;DHT22;41980;45.550;12.070;2023-05-29T07:24:24;32.90;37.90
49148;DHT22;41980;45.550;12.070;2023-05-29T07:30:26;32.90;37.80
49148;DHT22;41980;45.550;12.070;2023-05-29T07:36:30;32.70;35.30
49148;DHT22;41980;45.550;12.070;2023-05-29T07:42:35;32.90;35.80
49148;DHT22;41980;45.550;12.070;2023-05-29T07:48:38;33.40;36.20
49148;DHT22;41980;45.550;12.070;2023-05-29T07:54:40;33.40;35.40
49148;DHT22;41980;45.550;12.070;2023-05-29T08:00:44;33.20;34.70
49148;DHT22;41980;45.550;12.070;2023-05-29T08:06:48;33.10;33.30
49148;DHT22;41980;45.550;12.070;2023-05-29T08:12:50;33.40;34.90
49148;DHT22;41980;45.550;12.070;2023-05-29T08:18:55;33.50;34.50
49148;DHT22;41980;45.550;12.070;2023-05-29T08:24:58;33.70;34.30
49148;DHT22;41980;45.550;12.070;2023-05-29T08:31:00;33.30;34.30
49148;DHT22;41980;45.550;12.070;2023-05-29T08:37:02;33.00;34.40
49148;DHT22;41980;45.550;12.070;2023-05-29T08:43:13;33.30;34.20
49148;DHT22;41980;45.550;12.070;2023-05-29T08:49:18;33.10;33.60
49148;DHT22;41980;45.550;12.070;2023-05-29T08:55:22;33.40;33.90
49148;DHT22;41980;45.550;12.070;2023-05-29T09:01:25;33.50;33.90
49148;DHT22;41980;45.550;12.070;2023-05-29T09:07:27;33.50;33.70
49148;DHT22;41980;45.550;12.070;2023-05-29T09:13:29;33.40;33.30
49148;DHT22;41980;45.550;12.070;2023-05-29T09:19:33;33.00;33.90
49148;DHT22;41980;45.550;12.070;2023-05-29T09:25:40;33.60;33.40
49148;DHT22;41980;45.550;12.070;2023-05-29T09:31:47;33.50;33.80
49148;DHT22;41980;45.550;12.070;2023-05-29T09:37:49;33.10;33.00
49148;DHT22;41980;45.550;12.070;2023-05-29T09:43:52;32.70;33.20
49148;DHT22;41980;45.550;12.070;2023-05-29T09:49:56;33.10;33.20
49148;DHT22;41980;45.550;12.070;2023-05-29T09:55:58;32.80;33.50
49148;DHT22;41980;45.550;12.070;2023-05-29T10:02:03;33.00;33.40
49148;DHT22;41980;45.550;12.070;2023-05-29T10:08:08;33.00;33.30
49148;DHT22;41980;45.550;12.070;2023-05-29T10:14:14;32.90;33.80
49148;DHT22;41980;45.550;12.070;2023-05-29T10:20:20;32.90;33.20
49148;DHT22;41980;45.550;12.070;2023-05-29T10:26:25;32.60;33.50
49148;DHT22;41980;45.550;12.070;2023-05-29T10:38:47;32.10;32.30
49148;DHT22;41980;45.550;12.070;2023-05-29T10:44:50;31.80;33.30
49148;DHT22;41980;45.550;12.070;2023-05-29T10:50:52;31.20;34.20
49148;DHT22;41980;45.550;12.070;2023-05-29T10:56:58;30.70;34.20
49148;DHT22;41980;45.550;12.070;2023-05-29T11:03:03;30.20;35.10
49148;DHT22;41980;45.550;12.070;2023-05-29T11:09:06;29.90;35.40
49148;DHT22;41980;45.550;12.070;2023-05-29T11:15:10;29.40;35.80
49148;DHT22;41980;45.550;12.070;2023-05-29T11:27:25;29.40;35.90
49148;DHT22;41980;45.550;12.070;2023-05-29T11:33:29;29.50;36.10
49148;DHT22;41980;45.550;12.070;2023-05-29T11:39:37;29.50;36.00
49148;DHT22;41980;45.550;12.070;2023-05-29T11:45:39;29.30;36.30
49148;DHT22;41980;45.550;12.070;2023-05-29T11:51:42;29.30;36.60
49148;DHT22;41980;45.550;12.070;2023-05-29T11:57:45;29.10;36.70
49148;DHT22;41980;45.550;12.070;2023-05-29T12:03:47;29.10;36.80
49148;DHT22;41980;45.550;12.070;2023-05-29T12:09:49;29.20;36.70
49148;DHT22;41980;45.550;12.070;2023-05-29T12:15:57;29.20;36.80
49148;DHT22;41980;45.550;12.070;2023-05-29T12:22:01;29.10;37.00
49148;DHT22;41980;45.550;12.070;2023-05-29T12:28:04;28.80;37.40
49148;DHT22;41980;45.550;12.070;2023-05-29T12:34:11;28.60;37.30
49148;DHT22;41980;45.550;12.070;2023-05-29T12:46:21;28.80;37.50
49148;DHT22;41980;45.550;12.070;2023-05-29T12:52:24;28.90;36.80
49148;DHT22;41980;45.550;12.070;2023-05-29T12:58:26;28.70;37.40
49148;DHT22;41980;45.550;12.070;2023-05-29T13:04:29;28.60;37.50
49148;DHT22;41980;45.550;12.070;2023-05-29T13:10:31;28.60;37.70
49148;DHT22;41980;45.550;12.070;2023-05-29T13:16:33;28.60;37.80
49148;DHT22;41980;45.550;12.070;2023-05-29T13:22:39;28.50;37.90
49148;DHT22;41980;45.550;12.070;2023-05-29T13:28:41;28.50;38.20
49148;DHT22;41980;45.550;12.070;2023-05-29T13:34:43;28.50;38.50
49148;DHT22;41980;45.550;12.070;2023-05-29T13:40:46;28.50;38.60
49148;DHT22;41980;45.550;12.070;2023-05-29T13:46:48;28.50;38.70
49148;DHT22;41980;45.550;12.070;2023-05-29T13:52:50;28.50;38.70
49148;DHT22;41980;45.550;12.070;2023-05-29T13:58:52;28.40;38.80
49148;DHT22;41980;45.550;12.070;2023-05-29T14:04:55;28.50;39.10
49148;DHT22;41980;45.550;12.070;2023-05-29T14:10:57;28.40;38.90
49148;DHT22;41980;45.550;12.070;2023-05-29T14:16:59;28.30;39.00
49148;DHT22;41980;45.550;12.070;2023-05-29T14:23:01;28.30;39.00
49148;DHT22;41980;45.550;12.070;2023-05-29T14:29:03;28.30;39.10
49148;DHT22;41980;45.550;12.070;2023-05-29T14:35:05;28.30;39.10
49148;DHT22;41980;45.550;12.070;2023-05-29T14:41:07;28.20;39.10
49148;DHT22;41980;45.550;12.070;2023-05-29T14:47:09;28.20;39.10
49148;DHT22;41980;45.550;12.070;2023-05-29T14:53:12;28.00;39.20
49148;DHT22;41980;45.550;12.070;2023-05-29T14:59:14;28.00;39.40
49148;DHT22;41980;45.550;12.070;2023-05-29T15:05:16;28.00;39.40
49148;DHT22;41980;45.550;12.070;2023-05-29T15:11:20;27.90;38.90
49148;DHT22;41980;45.550;12.070;2023-05-29T15:17:24;27.90;39.40
49148;DHT22;41980;45.550;12.070;2023-05-29T15:23:26;27.90;39.40
49148;DHT22;41980;45.550;12.070;2023-05-29T15:29:35;27.90;39.50
49148;DHT22;41980;45.550;12.070;2023-05-29T15:35:38;27.90;39.70
49148;DHT22;41980;45.550;12.070;2023-05-29T15:41:42;27.90;39.80
49148;DHT22;41980;45.550;12.070;2023-05-29T15:47:44;27.90;39.70
49148;DHT22;41980;45.550;12.070;2023-05-29T15:53:46;28.00;39.70
49148;DHT22;41980;45.550;12.070;2023-05-29T15:59:48;28.10;39.70
49148;DHT22;41980;45.550;12.070;2023-05-29T16:05:51;28.10;39.70
49148;DHT22;41980;45.550;12.070;2023-05-29T16:11:53;28.00;39.70
49148;DHT22;41980;45.550;12.070;2023-05-29T16:17:57;27.90;39.90
49148;DHT22;41980;45.550;12.070;2023-05-29T16:24:00;27.90;40.00
49148;DHT22;41980;45.550;12.070;2023-05-29T16:30:03;27.80;40.30
49148;DHT22;41980;45.550;12.070;2023-05-29T16:36:06;27.60;41.60
49148;DHT22;41980;45.550;12.070;2023-05-29T16:42:09;27.50;41.50
49148;DHT22;41980;45.550;12.070;2023-05-29T16:48:13;27.50;41.60
49148;DHT22;41980;45.550;12.070;2023-05-29T16:54:15;27.40;42.10
49148;DHT22;41980;45.550;12.070;2023-05-29T17:00:17;27.40;42.00
49148;DHT22;41980;45.550;12.070;2023-05-29T17:06:19;27.50;41.90
49148;DHT22;41980;45.550;12.070;2023-05-29T17:12:22;27.40;42.00
49148;DHT22;41980;45.550;12.070;2023-05-29T17:18:24;27.30;42.10
49148;DHT22;41980;45.550;12.070;2023-05-29T17:24:26;27.10;42.20
49148;DHT22;41980;45.550;12.070;2023-05-29T17:30:28;26.90;42.30
49148;DHT22;41980;45.550;12.070;2023-05-29T17:36:30;26.80;42.50
49148;DHT22;41980;45.550;12.070;2023-05-29T17:42:32;26.70;42.60
49148;DHT22;41980;45.550;12.070;2023-05-29T17:48:33;26.60;42.80
49148;DHT22;41980;45.550;12.070;2023-05-29T17:54:36;26.50;43.00
49148;DHT22;41980;45.550;12.070;2023-05-29T18:00:38;26.40;42.90
49148;DHT22;41980;45.550;12.070;2023-05-29T18:06:40;26.30;43.10
49148;DHT22;41980;45.550;12.070;2023-05-29T18:13:02;26.10;43.20
49148;DHT22;41980;45.550;12.070;2023-05-29T18:19:04;26.00;43.40
49148;DHT22;41980;45.550;12.070;2023-05-29T18:25:08;25.90;43.50
49148;DHT22;41980;45.550;12.070;2023-05-29T18:31:10;25.70;43.90
49148;DHT22;41980;45.550;12.070;2023-05-29T18:37:12;25.50;43.80
49148;DHT22;41980;45.550;12.070;2023-05-29T18:43:14;25.40;44.00
49148;DHT22;41980;45.550;12.070;2023-05-29T18:49:17;25.20;44.00
49148;DHT22;41980;45.550;12.070;2023-05-29T18:55:20;25.00;44.10
49148;DHT22;41980;45.550;12.070;2023-05-29T19:01:23;24.90;44.50
49148;DHT22;41980;45.550;12.070;2023-05-29T19:07:25;24.80;44.50
49148;DHT22;41980;45.550;12.070;2023-05-29T19:13:27;24.80;44.60
49148;DHT22;41980;45.550;12.070;2023-05-29T19:19:30;24.70;44.70
49148;DHT22;41980;45.550;12.070;2023-05-29T19:25:32;24.60;45.00
49148;DHT22;41980;45.550;12.070;2023-05-29T19:31:35;24.50;45.00
49148;DHT22;41980;45.550;12.070;2023-05-29T19:37:37;24.50;45.00
49148;DHT22;41980;45.550;12.070;2023-05-29T19:43:39;24.50;45.10
49148;DHT22;41980;45.550;12.070;2023-05-29T19:49:41;24.50;45.20
49148;DHT22;41980;45.550;12.070;2023-05-29T19:55:44;24.50;45.40
49148;DHT22;41980;45.550;12.070;2023-05-29T20:01:46;24.30;45.50
49148;DHT22;41980;45.550;12.070;2023-05-29T20:07:48;24.20;45.60
49148;DHT22;41980;45.550;12.070;2023-05-29T20:13:50;24.20;45.80
49148;DHT22;41980;45.550;12.070;2023-05-29T20:19:54;24.10;46.20
49148;DHT22;41980;45.550;12.070;2023-05-29T20:25:56;24.00;46.20
49148;DHT22;41980;45.550;12.070;2023-05-29T20:31:58;23.90;46.40
49148;DHT22;41980;45.550;12.070;2023-05-29T20:38:00;23.90;46.30
49148;DHT22;41980;45.550;12.070;2023-05-29T20:44:03;23.90;46.60
49148;DHT22;41980;45.550;12.070;2023-05-29T20:50:06;23.90;46.70
49148;DHT22;41980;45.550;12.070;2023-05-29T20:56:09;23.90;47.20
49148;DHT22;41980;45.550;12.070;2023-05-29T21:02:12;23.80;47.10
49148;DHT22;41980;45.550;12.070;2023-05-29T21:08:17;23.80;47.10
49148;DHT22;41980;45.550;12.070;2023-05-29T21:14:19;23.70;47.60
49148;DHT22;41980;45.550;12.070;2023-05-29T21:20:21;23.70;47.30
49148;DHT22;41980;45.550;12.070;2023-05-29T21:26:24;23.60;47.60
49148;DHT22;41980;45.550;12.070;2023-05-29T21:32:28;23.50;47.90
49148;DHT22;41980;45.550;12.070;2023-05-29T21:38:30;23.50;47.80
49148;DHT22;41980;45.550;12.070;2023-05-29T21:44:34;23.50;48.10
49148;DHT22;41980;45.550;12.070;2023-05-29T21:50:36;23.40;48.00
49148;DHT22;41980;45.550;12.070;2023-05-29T21:56:38;23.40;47.90
49148;DHT22;41980;45.550;12.070;2023-05-29T22:02:40;23.40;48.00
49148;DHT22;41980;45.550;12.070;2023-05-29T22:08:44;23.30;49.90
49148;DHT22;41980;45.550;12.070;2023-05-29T22:14:46;23.20;49.20
49148;DHT22;41980;45.550;12.070;2023-05-29T22:20:48;23.10;49.90
49148;DHT22;41980;45.550;12.070;2023-05-29T22:26:50;23.10;50.90
49148;DHT22;41980;45.550;12.070;2023-05-29T22:32:52;23.00;50.20
49148;DHT22;41980;45.550;12.070;2023-05-29T22:38:54;23.00;51.20
49148;DHT22;41980;45.550;12.070;2023-05-29T22:44:57;23.00;50.80
49148;DHT22;41980;45.550;12.070;2023-05-29T22:50:59;23.00;51.80
49148;DHT22;41980;45.550;12.070;2023-05-29T22:57:05;22.90;55.10
49148;DHT22;41980;45.550;12.070;2023-05-29T23:03:07;22.80;55.80
49148;DHT22;41980;45.550;12.070;2023-05-29T23:09:10;22.80;53.60
49148;DHT22;41980;45.550;12.070;2023-05-29T23:15:13;22.80;54.30
49148;DHT22;41980;45.550;12.070;2023-05-29T23:21:17;22.80;54.90
49148;DHT22;41980;45.550;12.070;2023-05-29T23:27:20;22.80;55.30
49148;DHT22;41980;45.550;12.070;2023-05-29T23:33:22;22.80;54.90
49148;DHT22;41980;45.550;12.070;2023-05-29T23:39:24;22.70;55.10
49148;DHT22;41980;45.550;12.070;2023-05-29T23:45:26;22.60;56.00
49148;DHT22;41980;45.550;12.070;2023-05-29T23:51:28;22.50;55.80
49148;DHT22;41980;45.550;12.070;2023-05-29T23:57:31;22.40;56.60
